createdAt,value
2017-06-28T00:01:56.206Z,3.33
2017-06-28T00:04:24.474Z,3.33
2017-06-28T00:06:51.941Z,3.60
2017-06-28T00:09:20.182Z,2.90
2017-06-28T00:11:47.650Z,3.27
2017-06-28T00:14:15.204Z,4.50
2017-06-28T00:16:42.755Z,3.43
2017-06-28T00:19:10.214Z,3.33
2017-06-28T00:21:37.675Z,2.83
2017-06-28T00:24:05.248Z,3.60
2017-06-28T00:26:33.468Z,3.30
2017-06-28T00:29:00.979Z,3.47
2017-06-28T00:31:28.534Z,3.67
2017-06-28T00:33:56.094Z,4.03
2017-06-28T00:36:23.653Z,3.10
2017-06-28T00:38:51.152Z,3.23
2017-06-28T00:41:18.660Z,8.20
2017-06-28T00:43:46.212Z,3.10
2017-06-28T00:46:13.690Z,3.23
2017-06-28T00:48:41.144Z,3.93
2017-06-28T00:51:08.657Z,4.30
2017-06-28T00:53:36.150Z,3.53
2017-06-28T00:56:03.705Z,2.87
2017-06-28T00:58:31.257Z,2.77
2017-06-28T01:00:58.712Z,3.30
2017-06-28T01:03:26.272Z,3.30
2017-06-28T01:05:53.727Z,3.27
2017-06-28T01:08:21.317Z,3.33
2017-06-28T01:10:49.564Z,3.00
2017-06-28T01:13:17.124Z,3.00
2017-06-28T01:15:44.647Z,3.00
2017-06-28T01:18:12.155Z,3.20
2017-06-28T01:20:39.710Z,2.57
2017-06-28T01:23:07.169Z,3.20
2017-06-28T01:25:34.721Z,3.53
2017-06-28T01:28:02.182Z,3.00
2017-06-28T01:30:29.727Z,2.63
2017-06-28T01:32:57.189Z,2.90
2017-06-28T01:35:24.653Z,3.03
2017-06-28T01:37:52.113Z,2.70
2017-06-28T01:40:19.585Z,2.43
2017-06-28T01:42:47.806Z,2.73
2017-06-28T01:45:15.289Z,3.10
2017-06-28T01:47:42.845Z,2.90
2017-06-28T01:50:10.312Z,2.10
2017-06-28T01:52:37.767Z,3.17
2017-06-28T01:55:05.277Z,2.67
2017-06-28T01:57:32.744Z,2.60
2017-06-28T02:00:00.217Z,2.90
2017-06-28T02:02:27.677Z,2.80
2017-06-28T02:04:55.146Z,2.57
2017-06-28T02:07:22.614Z,2.83
2017-06-28T02:09:50.057Z,3.43
2017-06-28T02:12:17.522Z,3.00
2017-06-28T02:14:44.968Z,2.63
2017-06-28T02:17:12.434Z,3.30
2017-06-28T02:19:39.908Z,4.43
2017-06-28T02:22:08.171Z,3.87
2017-06-28T02:24:35.713Z,2.70
2017-06-28T02:27:03.167Z,2.87
2017-06-28T02:29:30.630Z,3.10
2017-06-28T02:31:58.198Z,3.10
2017-06-28T02:34:25.750Z,2.47
2017-06-28T02:36:53.218Z,4.33
2017-06-28T02:39:21.449Z,2.77
2017-06-28T02:41:48.933Z,2.83
2017-06-28T02:44:16.384Z,3.03
2017-06-28T02:46:43.833Z,3.03
2017-06-28T02:49:11.301Z,3.30
2017-06-28T02:51:38.777Z,2.90
2017-06-28T02:54:06.317Z,3.07
2017-06-28T02:56:33.778Z,2.53
2017-06-28T02:59:01.233Z,2.80
2017-06-28T03:01:28.783Z,3.37
2017-06-28T03:03:56.344Z,3.00
2017-06-28T03:06:23.915Z,3.00
2017-06-28T03:08:51.367Z,3.00
2017-06-28T03:11:18.834Z,3.30
2017-06-28T03:13:47.106Z,3.20
2017-06-28T03:16:14.587Z,2.77
2017-06-28T03:18:42.798Z,3.63
2017-06-28T03:21:10.276Z,3.17
2017-06-28T03:23:37.829Z,3.57
2017-06-28T03:26:05.401Z,3.57
2017-06-28T03:28:32.962Z,3.10
2017-06-28T03:31:00.517Z,3.60
2017-06-28T03:33:28.072Z,3.23
2017-06-28T03:35:55.533Z,2.70
2017-06-28T03:38:23.087Z,3.00
2017-06-28T03:40:50.640Z,3.40
2017-06-28T03:43:18.107Z,3.50
2017-06-28T03:45:45.661Z,3.23
2017-06-28T03:48:13.121Z,3.40
2017-06-28T03:50:40.692Z,4.10
2017-06-28T03:53:08.231Z,3.50
2017-06-28T03:55:35.808Z,3.87
2017-06-28T03:58:03.269Z,3.60
2017-06-28T04:00:31.484Z,3.40
2017-06-28T04:02:58.994Z,3.57
2017-06-28T04:05:26.502Z,4.23
2017-06-28T04:07:54.001Z,3.97
2017-06-28T04:10:21.460Z,3.87
2017-06-28T04:12:48.946Z,4.33
2017-06-28T04:15:17.182Z,4.87
2017-06-28T04:17:44.749Z,3.80
2017-06-28T04:20:12.297Z,4.70
2017-06-28T04:22:39.865Z,3.47
2017-06-28T04:25:07.429Z,3.83
2017-06-28T04:27:34.987Z,4.30
2017-06-28T04:30:02.454Z,3.93
2017-06-28T04:32:30.716Z,4.23
2017-06-28T04:34:58.169Z,5.20
2017-06-28T04:37:25.723Z,3.90
2017-06-28T04:39:53.194Z,4.50
2017-06-28T04:42:20.746Z,4.57
2017-06-28T04:44:48.206Z,3.93
2017-06-28T04:47:15.664Z,4.00
2017-06-28T04:49:43.213Z,4.70
2017-06-28T04:52:10.868Z,4.83
2017-06-28T04:54:38.444Z,4.07
2017-06-28T04:57:05.906Z,4.10
2017-06-28T04:59:33.458Z,4.93
2017-06-28T05:02:01.690Z,4.20
2017-06-28T05:04:29.144Z,4.73
2017-06-28T05:06:56.646Z,4.90
2017-06-28T05:09:24.253Z,5.07
2017-06-28T05:11:51.709Z,4.50
2017-06-28T05:14:19.208Z,4.10
2017-06-28T05:16:46.672Z,4.30
2017-06-28T05:19:14.143Z,4.63
2017-06-28T05:21:42.382Z,5.07
2017-06-28T05:24:09.866Z,5.43
2017-06-28T05:26:37.365Z,4.50
2017-06-28T05:29:04.821Z,5.67
2017-06-28T05:31:32.286Z,5.27
2017-06-28T05:33:59.794Z,4.60
2017-06-28T05:36:28.036Z,8.17
2017-06-28T05:38:55.495Z,5.50
2017-06-28T05:41:22.965Z,5.83
2017-06-28T05:43:50.432Z,5.20
2017-06-28T05:46:17.884Z,5.73
2017-06-28T05:48:45.455Z,5.60
2017-06-28T05:51:12.921Z,5.40
2017-06-28T05:53:40.461Z,5.60
2017-06-28T05:56:07.916Z,5.67
2017-06-28T05:58:35.375Z,5.40
2017-06-28T06:01:02.933Z,6.70
2017-06-28T06:03:30.405Z,4.83
2017-06-28T06:05:58.666Z,4.70
2017-06-28T06:08:26.119Z,6.30
2017-06-28T06:10:53.681Z,5.57
2017-06-28T06:13:21.154Z,5.47
2017-06-28T06:15:49.392Z,5.50
2017-06-28T06:18:16.865Z,5.90
2017-06-28T06:20:45.100Z,5.90
2017-06-28T06:23:12.572Z,4.77
2017-06-28T06:25:40.035Z,5.63
2017-06-28T06:28:07.510Z,5.70
2017-06-28T06:30:34.973Z,5.90
2017-06-28T06:33:02.570Z,5.03
2017-06-28T06:35:30.046Z,5.73
2017-06-28T06:37:57.529Z,5.00
2017-06-28T06:40:24.986Z,5.80
2017-06-28T06:42:52.456Z,5.67
2017-06-28T06:45:20.014Z,5.77
2017-06-28T06:47:47.593Z,5.03
2017-06-28T06:50:15.839Z,6.03
2017-06-28T06:52:43.328Z,4.57
2017-06-28T06:55:11.554Z,5.20
2017-06-28T06:57:39.044Z,6.67
2017-06-28T07:00:06.496Z,5.30
2017-06-28T07:02:34.051Z,5.23
2017-06-28T07:05:01.513Z,5.57
2017-06-28T07:07:29.027Z,5.37
2017-06-28T07:09:56.511Z,5.73
2017-06-28T07:12:23.964Z,6.63
2017-06-28T07:14:51.488Z,6.60
2017-06-28T07:17:18.999Z,6.07
2017-06-28T07:19:46.559Z,5.97
2017-06-28T07:22:14.108Z,5.47
2017-06-28T07:24:41.562Z,5.10
2017-06-28T07:27:09.025Z,5.13
2017-06-28T07:29:36.485Z,5.37
2017-06-28T07:32:04.032Z,5.33
2017-06-28T07:34:31.586Z,5.97
2017-06-28T07:36:59.145Z,5.70
2017-06-28T07:39:26.592Z,5.60
2017-06-28T07:41:54.072Z,5.43
2017-06-28T07:44:21.636Z,5.80
2017-06-28T07:46:49.115Z,5.97
2017-06-28T07:49:17.345Z,6.00
2017-06-28T07:51:44.817Z,6.10
2017-06-28T07:54:13.090Z,5.40
2017-06-28T07:56:40.644Z,6.70
2017-06-28T07:59:08.206Z,5.93
2017-06-28T08:01:35.752Z,6.13
2017-06-28T08:04:03.224Z,5.60
2017-06-28T08:06:30.695Z,5.27
2017-06-28T08:08:58.949Z,6.30
2017-06-28T08:11:26.510Z,5.07
2017-06-28T08:13:54.071Z,5.37
2017-06-28T08:16:21.641Z,6.10
2017-06-28T08:18:49.875Z,6.70
2017-06-28T08:21:17.344Z,5.50
2017-06-28T08:23:44.813Z,5.30
2017-06-28T08:26:12.373Z,5.63
2017-06-28T08:28:39.837Z,6.30
2017-06-28T08:31:07.380Z,5.50
2017-06-28T08:33:34.953Z,6.03
2017-06-28T08:36:02.514Z,5.10
2017-06-28T08:38:30.124Z,4.80
2017-06-28T08:40:57.625Z,4.67
2017-06-28T08:43:25.185Z,4.83
2017-06-28T08:45:52.729Z,6.00
2017-06-28T08:48:20.179Z,5.57
2017-06-28T08:50:47.640Z,5.50
2017-06-28T08:53:15.127Z,5.20
2017-06-28T08:55:43.362Z,5.00
2017-06-28T08:58:10.846Z,5.73
2017-06-28T09:00:38.404Z,5.10
2017-06-28T09:03:05.966Z,5.40
2017-06-28T09:05:33.434Z,5.70
2017-06-28T09:08:01.707Z,5.80
2017-06-28T09:10:29.250Z,5.60
2017-06-28T09:12:56.807Z,6.50
2017-06-28T09:15:24.261Z,5.80
2017-06-28T09:17:51.836Z,5.67
2017-06-28T09:20:19.298Z,6.00
2017-06-28T09:22:47.559Z,5.90
2017-06-28T09:25:15.011Z,6.17
2017-06-28T09:27:42.482Z,5.63
2017-06-28T09:30:09.937Z,6.17
2017-06-28T09:32:37.442Z,5.83
2017-06-28T09:35:04.914Z,6.00
2017-06-28T09:37:32.405Z,5.10
2017-06-28T09:39:59.865Z,5.63
2017-06-28T09:42:28.130Z,5.47
2017-06-28T09:44:55.592Z,5.03
2017-06-28T09:47:23.072Z,6.33
2017-06-28T09:49:51.302Z,5.20
2017-06-28T09:52:18.753Z,5.27
2017-06-28T09:54:46.238Z,5.80
2017-06-28T09:57:13.792Z,5.30
2017-06-28T09:59:41.262Z,5.30
2017-06-28T10:02:09.494Z,5.30
2017-06-28T10:04:36.961Z,4.80
2017-06-28T10:07:04.414Z,5.40
2017-06-28T10:09:31.881Z,5.33
2017-06-28T10:11:59.351Z,5.80
2017-06-28T10:14:26.816Z,5.57
2017-06-28T10:16:55.082Z,6.83
2017-06-28T10:19:22.539Z,6.70
2017-06-28T10:21:50.011Z,7.03
2017-06-28T10:24:18.255Z,5.87
2017-06-28T10:26:45.718Z,5.93
2017-06-28T10:29:13.186Z,4.97
2017-06-28T10:31:40.653Z,5.73
2017-06-28T10:34:08.900Z,5.13
2017-06-28T10:36:36.371Z,5.27
2017-06-28T10:39:03.835Z,5.90
2017-06-28T10:41:31.298Z,5.50
2017-06-28T10:43:59.557Z,5.50
2017-06-28T10:46:27.118Z,6.07
2017-06-28T10:48:54.630Z,5.87
2017-06-28T10:51:22.128Z,5.70
2017-06-28T10:53:49.584Z,5.90
2017-06-28T10:56:17.159Z,6.33
2017-06-28T10:58:45.448Z,5.70
2017-06-28T11:01:12.916Z,5.30
2017-06-28T11:03:40.395Z,6.33
2017-06-28T11:06:07.851Z,5.50
2017-06-28T11:08:35.350Z,5.50
2017-06-28T11:11:02.911Z,5.60
2017-06-28T11:13:30.382Z,5.37
2017-06-28T11:15:58.643Z,5.27
2017-06-28T11:18:26.106Z,5.90
2017-06-28T11:20:54.364Z,5.30
2017-06-28T11:23:21.929Z,5.27
2017-06-28T11:25:49.395Z,6.30
2017-06-28T11:28:16.889Z,5.77
2017-06-28T11:30:44.345Z,5.83
2017-06-28T11:33:11.792Z,4.70
2017-06-28T11:35:39.303Z,5.20
2017-06-28T11:38:06.763Z,6.03
2017-06-28T11:40:34.225Z,5.50
2017-06-28T11:43:01.676Z,6.10
2017-06-28T11:45:29.142Z,7.17
2017-06-28T11:47:56.683Z,4.90
2017-06-28T11:50:24.159Z,5.70
2017-06-28T11:52:51.705Z,4.83
2017-06-28T11:55:19.275Z,5.60
2017-06-28T11:57:46.825Z,5.80
2017-06-28T12:00:14.299Z,5.50
2017-06-28T12:02:42.548Z,5.30
2017-06-28T12:05:10.118Z,6.93
2017-06-28T12:07:37.668Z,9.40
2017-06-28T12:10:05.134Z,7.10
2017-06-28T12:12:32.679Z,5.87
2017-06-28T12:15:00.149Z,6.20
2017-06-28T12:17:27.709Z,6.83
2017-06-28T12:19:55.267Z,6.37
2017-06-28T12:22:22.812Z,5.47
2017-06-28T12:24:50.268Z,6.20
2017-06-28T12:27:17.738Z,6.27
2017-06-28T12:29:45.303Z,5.83
2017-06-28T12:32:12.759Z,6.60
2017-06-28T12:34:40.225Z,6.73
2017-06-28T12:37:08.485Z,7.10
2017-06-28T12:39:36.043Z,7.00
2017-06-28T12:42:03.596Z,6.73
2017-06-28T12:44:31.151Z,6.17
2017-06-28T12:46:58.721Z,6.83
2017-06-28T12:49:26.314Z,9.10
2017-06-28T12:51:53.763Z,6.40
2017-06-28T12:54:21.228Z,6.10
2017-06-28T12:56:48.687Z,5.93
2017-06-28T12:59:16.148Z,5.80
2017-06-28T13:01:44.372Z,6.23
2017-06-28T13:04:11.847Z,7.43
2017-06-28T13:06:40.104Z,5.50
2017-06-28T13:09:07.572Z,6.47
2017-06-28T13:11:35.029Z,5.90
2017-06-28T13:14:03.287Z,5.47
2017-06-28T13:16:30.847Z,6.03
2017-06-28T13:18:58.321Z,5.80
2017-06-28T13:21:25.928Z,5.30
2017-06-28T13:23:53.467Z,6.03
2017-06-28T13:26:20.989Z,7.30
2017-06-28T13:28:48.464Z,6.07
2017-06-28T13:31:16.809Z,7.50
2017-06-28T13:33:44.273Z,6.50
2017-06-28T13:36:11.838Z,8.50
2017-06-28T13:38:39.385Z,6.77
2017-06-28T13:41:06.958Z,6.80
2017-06-28T13:43:34.519Z,6.40
2017-06-28T13:46:01.981Z,6.33
2017-06-28T13:48:29.432Z,6.50
2017-06-28T13:50:56.987Z,7.40
2017-06-28T13:53:24.523Z,6.40
2017-06-28T13:55:52.006Z,7.10
2017-06-28T13:58:19.567Z,8.00
2017-06-28T14:00:47.012Z,7.23
2017-06-28T14:03:14.578Z,6.63
2017-06-28T14:05:42.049Z,7.20
2017-06-28T14:08:10.299Z,8.00
2017-06-28T14:10:37.856Z,7.97
2017-06-28T14:13:05.300Z,7.73
2017-06-28T14:15:32.761Z,9.53
2017-06-28T14:18:00.337Z,9.50
2017-06-28T14:20:27.899Z,9.10
2017-06-28T14:22:55.367Z,9.57
2017-06-28T14:25:23.585Z,9.87
2017-06-28T14:27:51.098Z,11.03
2017-06-28T14:30:19.343Z,9.77
2017-06-28T14:32:46.796Z,8.63
2017-06-28T14:35:14.260Z,9.93
2017-06-28T14:37:41.726Z,8.83
2017-06-28T14:40:09.286Z,9.60
2017-06-28T14:42:36.845Z,8.00
2017-06-28T14:45:04.404Z,8.07
2017-06-28T14:47:31.958Z,8.00
2017-06-28T14:49:59.416Z,8.47
2017-06-28T14:52:26.887Z,8.73
2017-06-28T14:54:55.153Z,7.77
2017-06-28T14:57:22.697Z,9.80
2017-06-28T14:59:50.221Z,7.27
2017-06-28T15:02:17.725Z,7.07
2017-06-28T15:04:45.189Z,7.13
2017-06-28T15:07:13.454Z,6.40
2017-06-28T15:09:41.011Z,6.50
2017-06-28T15:12:08.473Z,6.60
2017-06-28T15:14:36.477Z,5.50
2017-06-28T15:17:03.941Z,5.47
2017-06-28T15:19:31.407Z,5.37
2017-06-28T15:21:58.883Z,5.60
2017-06-28T15:24:26.382Z,5.17
2017-06-28T15:26:54.614Z,5.20
2017-06-28T15:29:22.077Z,4.33
2017-06-28T15:31:49.544Z,5.17
2017-06-28T15:34:17.104Z,4.40
2017-06-28T15:36:44.572Z,4.40
2017-06-28T15:39:12.033Z,5.20
2017-06-28T15:41:39.502Z,4.07
2017-06-28T15:44:07.737Z,4.07
2017-06-28T15:46:35.204Z,4.30
2017-06-28T15:49:02.673Z,4.83
2017-06-28T15:51:30.217Z,3.97
2017-06-28T15:54:09.663Z,5.07
2017-06-28T15:56:47.057Z,5.60
2017-06-28T15:59:14.513Z,4.80
2017-06-28T16:01:41.981Z,4.50
2017-06-28T16:04:10.205Z,3.83
2017-06-28T16:06:37.690Z,4.40
2017-06-28T16:09:05.257Z,4.63
2017-06-28T16:11:32.704Z,4.67
2017-06-28T16:14:00.278Z,5.27
2017-06-28T16:16:27.726Z,5.03
2017-06-28T16:18:55.184Z,3.80
2017-06-28T16:21:22.653Z,4.80
2017-06-28T16:23:50.885Z,4.70
2017-06-28T16:26:18.402Z,4.50
2017-06-28T16:28:46.665Z,5.30
2017-06-28T16:31:14.883Z,5.00
2017-06-28T16:33:42.369Z,4.00
2017-06-28T16:36:09.936Z,4.60
2017-06-28T16:38:37.392Z,4.73
2017-06-28T16:41:04.943Z,5.50
2017-06-28T16:43:33.492Z,8.50
2017-06-28T16:46:01.152Z,5.60
2017-06-28T16:48:29.028Z,6.37
2017-06-28T16:50:56.685Z,5.67
2017-06-28T16:53:24.474Z,7.27
2017-06-28T16:55:51.948Z,6.60
2017-06-28T16:58:19.500Z,6.67
2017-06-28T17:00:47.052Z,6.67
2017-06-28T17:03:14.518Z,5.60
2017-06-28T17:05:42.065Z,5.93
2017-06-28T17:08:09.528Z,5.80
2017-06-28T17:10:37.084Z,6.83
2017-06-28T17:13:04.550Z,6.00
2017-06-28T17:15:32.119Z,6.13
2017-06-28T17:17:59.666Z,6.03
2017-06-28T17:20:27.138Z,6.07
2017-06-28T17:22:55.396Z,5.57
2017-06-28T17:25:22.865Z,6.43
2017-06-28T17:27:50.321Z,6.10
2017-06-28T17:30:18.556Z,5.50
2017-06-28T17:32:46.034Z,6.10
2017-06-28T17:35:13.515Z,5.53
2017-06-28T17:37:41.727Z,6.63
2017-06-28T17:40:09.231Z,5.97
2017-06-28T17:42:36.694Z,6.47
2017-06-28T17:45:04.237Z,6.27
2017-06-28T17:47:31.706Z,6.67
2017-06-28T17:49:59.261Z,6.60
2017-06-28T17:52:26.733Z,6.17
2017-06-28T17:54:54.997Z,6.93
2017-06-28T17:57:22.469Z,5.80
2017-06-28T17:59:50.716Z,6.03
2017-06-28T18:02:18.282Z,6.43
2017-06-28T18:04:45.737Z,6.77
2017-06-28T18:07:13.205Z,6.67
2017-06-28T18:09:40.682Z,5.80
2017-06-28T18:12:08.175Z,9.30
2017-06-28T18:14:35.656Z,7.63
2017-06-28T18:17:03.126Z,7.13
2017-06-28T18:19:30.671Z,7.10
2017-06-28T18:21:58.250Z,6.10
2017-06-28T18:24:26.522Z,7.30
2017-06-28T18:26:53.968Z,6.17
2017-06-28T18:29:21.539Z,6.97
2017-06-28T18:31:49.077Z,6.90
2017-06-28T18:34:16.655Z,6.53
2017-06-28T18:36:44.221Z,6.90
2017-06-28T18:39:12.463Z,6.33
2017-06-28T18:41:39.998Z,5.90
2017-06-28T18:44:07.503Z,7.10
2017-06-28T18:46:35.068Z,6.70
2017-06-28T18:49:03.324Z,6.00
2017-06-28T18:51:30.792Z,7.40
2017-06-28T18:53:58.250Z,6.50
2017-06-28T18:56:25.807Z,5.70
2017-06-28T18:58:53.251Z,6.30
2017-06-28T19:01:20.718Z,6.97
2017-06-28T19:03:48.176Z,7.77
2017-06-28T19:06:15.649Z,8.90
2017-06-28T19:08:43.991Z,7.00
2017-06-28T19:11:11.580Z,6.50
2017-06-28T19:13:39.814Z,6.47
2017-06-28T19:16:07.273Z,7.80
2017-06-28T19:18:34.756Z,7.47
2017-06-28T19:21:02.314Z,7.60
2017-06-28T19:23:29.869Z,8.97
2017-06-28T19:25:57.433Z,8.87
2017-06-28T19:28:24.975Z,8.67
2017-06-28T19:30:52.542Z,7.20
2017-06-28T19:33:20.092Z,7.90
2017-06-28T19:35:47.567Z,7.73
2017-06-28T19:38:15.117Z,6.77
2017-06-28T19:40:42.685Z,7.80
2017-06-28T19:43:10.137Z,8.00
2017-06-28T19:45:37.705Z,8.67
2017-06-28T19:48:05.965Z,8.40
2017-06-28T19:50:33.505Z,8.13
2017-06-28T19:53:00.969Z,8.20
2017-06-28T19:55:28.445Z,7.50
2017-06-28T19:57:55.914Z,7.87
2017-06-28T20:00:24.132Z,8.83
2017-06-28T20:02:51.593Z,8.10
2017-06-28T20:05:19.049Z,8.03
2017-06-28T20:07:46.495Z,8.33
2017-06-28T20:10:14.005Z,8.17
2017-06-28T20:12:41.548Z,7.40
2017-06-28T20:15:09.008Z,8.07
2017-06-28T20:17:36.560Z,7.97
2017-06-28T20:20:04.030Z,7.90
2017-06-28T20:22:31.586Z,8.57
2017-06-28T20:24:59.148Z,8.50
2017-06-28T20:27:27.412Z,9.10
2017-06-28T20:29:54.883Z,8.17
2017-06-28T20:32:22.424Z,9.70
2017-06-28T20:34:49.894Z,9.27
2017-06-28T20:37:17.462Z,9.10
2017-06-28T20:39:45.008Z,9.80
2017-06-28T20:42:12.565Z,9.23
2017-06-28T20:44:40.046Z,8.67
2017-06-28T20:47:08.286Z,11.37
2017-06-28T20:49:35.769Z,10.07
2017-06-28T20:52:04.043Z,10.57
2017-06-28T20:54:32.317Z,11.20
2017-06-28T20:57:00.572Z,11.37
2017-06-28T20:59:28.144Z,11.83
2017-06-28T21:01:55.620Z,11.57
2017-06-28T21:04:23.864Z,11.70
2017-06-28T21:06:51.433Z,11.27
2017-06-28T21:09:18.891Z,11.33
2017-06-28T21:11:46.444Z,11.60
2017-06-28T21:14:14.000Z,12.97
2017-06-28T21:16:41.556Z,12.90
2017-06-28T21:19:09.109Z,12.83
2017-06-28T21:21:36.735Z,11.67
2017-06-28T21:24:04.209Z,12.40
2017-06-28T21:26:31.788Z,11.77
2017-06-28T21:28:59.357Z,12.50
2017-06-28T21:31:26.817Z,12.00
2017-06-28T21:33:54.388Z,11.90
2017-06-28T21:36:22.642Z,12.00
2017-06-28T21:38:50.115Z,11.57
2017-06-28T21:41:18.359Z,11.30
2017-06-28T21:43:45.837Z,11.63
2017-06-28T21:46:13.398Z,11.50
2017-06-28T21:48:40.945Z,11.20
2017-06-28T21:51:08.567Z,12.77
2017-06-28T21:53:36.065Z,12.47
2017-06-28T21:56:03.626Z,11.77
2017-06-28T21:58:31.080Z,12.30
2017-06-28T22:00:58.641Z,13.50
2017-06-28T22:03:26.109Z,13.13
2017-06-28T22:05:54.377Z,12.10
2017-06-28T22:08:21.847Z,13.07
2017-06-28T22:10:50.113Z,13.07
2017-06-28T22:13:17.656Z,14.67
2017-06-28T22:15:45.216Z,15.10
2017-06-28T22:18:12.768Z,14.67
2017-06-28T22:20:40.328Z,14.57
2017-06-28T22:23:07.831Z,13.73
2017-06-28T22:25:35.362Z,14.97
2017-06-28T22:28:02.909Z,13.30
2017-06-28T22:30:30.486Z,15.23
2017-06-28T22:32:58.763Z,16.80
2017-06-28T22:35:27.034Z,15.50
2017-06-28T22:37:55.309Z,15.37
2017-06-28T22:40:22.774Z,13.80
2017-06-28T22:42:51.080Z,14.30
2017-06-28T22:45:19.297Z,13.30
2017-06-28T22:47:46.765Z,14.57
2017-06-28T22:50:14.325Z,14.67
2017-06-28T22:52:41.888Z,14.60
2017-06-28T22:55:09.450Z,13.93
2017-06-28T22:57:36.913Z,15.00
2017-06-28T23:00:05.384Z,14.23
2017-06-28T23:02:32.951Z,14.17
2017-06-28T23:05:00.524Z,13.67
2017-06-28T23:07:28.760Z,14.80
2017-06-28T23:09:56.322Z,15.30
2017-06-28T23:12:23.799Z,14.30
2017-06-28T23:14:52.023Z,15.40
2017-06-28T23:17:19.613Z,15.60
2017-06-28T23:19:47.178Z,16.90
2017-06-28T23:22:14.632Z,16.70
2017-06-28T23:24:42.111Z,16.00
2017-06-28T23:27:10.365Z,15.13
2017-06-28T23:29:37.916Z,16.73
2017-06-28T23:32:05.373Z,15.77
2017-06-28T23:34:32.937Z,15.80
2017-06-28T23:37:00.498Z,15.00
2017-06-28T23:39:28.059Z,14.97
2017-06-28T23:41:55.618Z,17.10
2017-06-28T23:44:23.084Z,15.10
2017-06-28T23:46:51.340Z,15.30
2017-06-28T23:49:18.901Z,15.27
2017-06-28T23:51:46.361Z,13.87
2017-06-28T23:54:13.843Z,16.20
2017-06-28T23:56:42.063Z,15.10
2017-06-28T23:59:09.640Z,16.60
